createdAt,value
2018-04-14T00:03:01.934Z,100985.01
2018-04-14T00:06:06.010Z,100985.56
2018-04-14T00:09:09.337Z,100981.28
2018-04-14T00:12:13.405Z,100995.34
2018-04-14T00:15:16.720Z,100990.54
2018-04-14T00:18:20.037Z,100987.95
2018-04-14T00:21:23.480Z,101007.00
2018-04-14T00:24:26.821Z,101003.78
2018-04-14T00:27:30.125Z,101007.64
2018-04-14T00:30:33.461Z,101013.48
2018-04-14T00:33:36.765Z,101023.67
2018-04-14T00:36:40.082Z,101023.59
2018-04-14T00:39:43.391Z,101011.28
2018-04-14T00:42:46.733Z,101017.42
2018-04-14T00:45:50.034Z,101023.39
2018-04-14T00:48:53.395Z,101007.23
2018-04-14T00:51:56.689Z,101009.22
2018-04-14T00:54:59.997Z,100993.16
2018-04-14T00:58:04.076Z,100982.75
2018-04-14T01:01:07.377Z,100973.98
2018-04-14T01:04:10.695Z,100963.06
2018-04-14T01:07:13.988Z,100964.59
2018-04-14T01:10:17.304Z,100968.78
2018-04-14T01:13:21.373Z,100962.22
2018-04-14T01:16:24.701Z,100966.08
2018-04-14T01:19:28.009Z,100983.78
2018-04-14T01:22:32.101Z,100974.08
2018-04-14T01:25:35.424Z,100981.19
2018-04-14T01:28:39.492Z,100956.48
2018-04-14T01:31:42.809Z,100935.33
2018-04-14T01:34:46.117Z,100911.24
2018-04-14T01:37:49.433Z,100916.66
2018-04-14T01:40:53.497Z,100917.50
2018-04-14T01:43:56.817Z,100904.38
2018-04-14T01:47:00.125Z,100893.42
2018-04-14T01:50:03.460Z,100908.65
2018-04-14T01:53:06.756Z,100924.69
2018-04-14T01:56:10.086Z,100920.33
2018-04-14T01:59:13.382Z,100912.80
2018-04-14T02:02:16.709Z,100919.90
2018-04-14T02:05:20.776Z,100922.81
2018-04-14T02:08:24.088Z,100948.22
2018-04-14T02:11:27.411Z,100966.16
2018-04-14T02:14:30.705Z,100985.86
2018-04-14T02:17:34.021Z,101003.47
2018-04-14T02:20:38.085Z,101034.13
2018-04-14T02:23:41.398Z,101035.25
2018-04-14T02:26:44.710Z,101024.50
2018-04-14T02:29:48.029Z,101025.14
2018-04-14T02:32:51.332Z,101012.09
2018-04-14T02:35:54.652Z,101032.00
2018-04-14T02:38:57.966Z,101005.75
2018-04-14T02:42:01.274Z,101039.73
2018-04-14T02:45:04.606Z,101008.25
2018-04-14T02:48:08.678Z,101020.98
2018-04-14T02:51:12.013Z,101009.20
2018-04-14T02:54:16.069Z,101023.17
2018-04-14T02:57:19.385Z,101026.72
2018-04-14T03:00:22.685Z,101028.80
2018-04-14T03:03:26.002Z,101018.48
2018-04-14T03:06:29.318Z,101010.55
2018-04-14T03:09:32.656Z,101016.39
2018-04-14T03:12:35.994Z,101016.30
2018-04-14T03:15:39.293Z,101015.66
2018-04-14T03:18:42.608Z,101018.27
2018-04-14T03:21:46.677Z,101019.20
2018-04-14T03:24:50.002Z,101020.86
2018-04-14T03:27:53.313Z,101028.78
2018-04-14T03:30:57.394Z,101041.39
2018-04-14T03:34:00.691Z,101037.32
2018-04-14T03:37:04.040Z,101034.52
2018-04-14T03:40:07.366Z,101028.69
2018-04-14T03:43:10.661Z,101024.72
2018-04-14T03:46:13.989Z,101026.92
2018-04-14T03:49:17.289Z,101016.08
2018-04-14T03:52:20.613Z,101021.59
2018-04-14T03:55:23.918Z,101009.61
2018-04-14T03:58:27.257Z,101012.95
2018-04-14T04:01:30.563Z,101001.39
2018-04-14T04:04:33.898Z,100995.84
2018-04-14T04:07:37.208Z,100984.41
2018-04-14T04:10:40.528Z,100991.59
2018-04-14T04:13:43.824Z,100992.82
2018-04-14T04:16:47.149Z,100998.14
2018-04-14T04:20:08.169Z,100990.12
2018-04-14T04:23:29.064Z,100989.47
2018-04-14T04:26:32.364Z,100989.80
2018-04-14T04:29:35.697Z,100977.41
2018-04-14T04:32:39.848Z,100990.84
2018-04-14T04:35:43.165Z,100995.62
2018-04-14T04:38:46.477Z,100989.57
2018-04-14T04:41:49.804Z,100995.63
2018-04-14T04:44:53.130Z,101007.90
2018-04-14T04:47:56.445Z,100995.72
2018-04-14T04:50:59.764Z,100990.42
2018-04-14T04:54:03.086Z,101005.11
2018-04-14T04:57:06.409Z,101018.95
2018-04-14T05:00:09.730Z,101033.20
2018-04-14T05:03:13.029Z,101041.66
2018-04-14T05:06:16.353Z,101041.22
2018-04-14T05:09:20.421Z,101031.53
2018-04-14T05:12:23.770Z,101037.89
2018-04-14T05:15:27.848Z,101054.48
2018-04-14T05:18:31.194Z,101049.47
2018-04-14T05:21:35.261Z,101040.22
2018-04-14T05:24:38.586Z,101039.17
2018-04-14T05:27:41.932Z,101041.89
2018-04-14T05:30:45.240Z,101034.63
2018-04-14T05:33:48.562Z,101044.42
2018-04-14T05:36:51.867Z,101060.37
2018-04-14T05:39:55.341Z,101071.01
2018-04-14T05:42:58.667Z,101059.84
2018-04-14T05:46:01.974Z,101056.63
2018-04-14T05:49:06.064Z,101058.00
2018-04-14T05:52:09.366Z,101066.34
2018-04-14T05:55:12.712Z,101051.63
2018-04-14T05:58:16.014Z,101042.99
2018-04-14T06:01:19.329Z,101041.64
2018-04-14T06:04:22.633Z,101055.62
2018-04-14T06:07:25.951Z,101061.23
2018-04-14T06:10:29.261Z,101063.02
2018-04-14T06:13:33.352Z,101070.86
2018-04-14T06:16:36.679Z,101066.25
2018-04-14T06:19:40.773Z,101062.61
2018-04-14T06:22:44.068Z,101058.03
2018-04-14T06:25:47.385Z,101063.84
2018-04-14T06:28:51.472Z,101057.91
2018-04-14T06:31:54.775Z,101051.95
2018-04-14T06:34:58.874Z,101059.88
2018-04-14T06:38:02.188Z,101073.47
2018-04-14T06:41:05.508Z,101097.03
2018-04-14T06:44:08.845Z,101104.53
2018-04-14T06:47:12.137Z,101100.38
2018-04-14T06:50:16.206Z,101099.75
2018-04-14T06:53:20.981Z,101108.09
2018-04-14T06:56:24.298Z,101122.59
2018-04-14T06:59:27.601Z,101141.16
2018-04-14T07:02:31.174Z,101154.30
2018-04-14T07:05:34.477Z,101155.36
2018-04-14T07:08:37.809Z,101157.23
2018-04-14T07:11:41.152Z,101163.59
2018-04-14T07:14:44.477Z,101170.36
2018-04-14T07:17:47.794Z,101170.78
2018-04-14T07:20:51.108Z,101169.64
2018-04-14T07:23:55.193Z,101158.16
2018-04-14T07:26:58.499Z,101166.50
2018-04-14T07:30:01.822Z,101174.64
2018-04-14T07:33:05.897Z,101175.18
2018-04-14T07:36:09.215Z,101174.97
2018-04-14T07:39:12.538Z,101186.03
2018-04-14T07:42:16.625Z,101186.84
2018-04-14T07:45:19.945Z,101186.55
2018-04-14T07:48:24.018Z,101184.65
2018-04-14T07:51:27.375Z,101166.92
2018-04-14T07:54:30.716Z,101162.02
2018-04-14T07:57:34.049Z,101174.01
2018-04-14T08:00:37.366Z,101172.44
2018-04-14T08:03:40.685Z,101168.93
2018-04-14T08:06:43.994Z,101171.73
2018-04-14T08:09:47.309Z,101179.86
2018-04-14T08:12:50.626Z,101173.38
2018-04-14T08:15:54.689Z,101187.50
2018-04-14T08:18:58.004Z,101193.97
2018-04-14T08:22:01.323Z,101193.03
2018-04-14T08:25:04.629Z,101194.27
2018-04-14T08:28:07.938Z,101196.98
2018-04-14T08:31:12.045Z,101207.97
2018-04-14T08:34:15.348Z,101200.14
2018-04-14T08:37:19.441Z,101189.47
2018-04-14T08:40:23.534Z,101194.59
2018-04-14T08:43:26.845Z,101194.08
2018-04-14T08:46:30.177Z,101185.09
2018-04-14T08:49:33.485Z,101178.73
2018-04-14T08:52:36.804Z,101174.11
2018-04-14T08:55:40.105Z,101169.11
2018-04-14T08:58:43.429Z,101166.30
2018-04-14T09:01:46.753Z,101170.80
2018-04-14T09:04:50.825Z,101191.25
2018-04-14T09:07:54.145Z,101187.90
2018-04-14T09:10:58.220Z,101196.47
2018-04-14T09:14:01.537Z,101187.17
2018-04-14T09:17:04.837Z,101183.01
2018-04-14T09:20:08.201Z,101190.30
2018-04-14T09:23:11.527Z,101191.66
2018-04-14T09:26:14.837Z,101189.78
2018-04-14T09:29:18.161Z,101191.14
2018-04-14T09:32:21.470Z,101188.42
2018-04-14T09:35:24.789Z,101187.14
2018-04-14T09:38:28.105Z,101188.16
2018-04-14T09:41:31.430Z,101205.31
2018-04-14T09:44:35.519Z,101205.50
2018-04-14T09:47:38.821Z,101199.52
2018-04-14T09:50:42.145Z,101198.80
2018-04-14T09:53:46.229Z,101204.52
2018-04-14T09:56:49.549Z,101213.38
2018-04-14T09:59:53.649Z,101217.78
2018-04-14T10:03:00.990Z,101222.38
2018-04-14T10:06:04.266Z,101211.81
2018-04-14T10:09:07.578Z,101216.73
2018-04-14T10:12:10.903Z,101217.34
2018-04-14T10:15:14.210Z,101222.42
2018-04-14T10:18:17.540Z,101208.41
2018-04-14T10:21:21.618Z,101221.65
2018-04-14T10:24:24.937Z,101229.08
2018-04-14T10:27:28.263Z,101235.15
2018-04-14T10:30:31.589Z,101225.08
2018-04-14T10:33:34.917Z,101223.70
2018-04-14T10:36:38.239Z,101237.52
2018-04-14T10:39:42.361Z,101241.61
2018-04-14T10:42:46.418Z,101245.05
2018-04-14T10:45:49.744Z,101249.04
2018-04-14T10:48:53.041Z,101251.50
2018-04-14T10:51:56.362Z,101248.91
2018-04-14T10:55:00.445Z,101255.92
2018-04-14T10:58:03.769Z,101259.42
2018-04-14T11:01:07.850Z,101262.66
2018-04-14T11:04:11.170Z,101258.08
2018-04-14T11:07:14.493Z,101253.06
2018-04-14T11:10:17.813Z,101267.16
2018-04-14T11:13:21.445Z,101267.25
2018-04-14T11:16:25.425Z,101263.50
2018-04-14T11:19:28.742Z,101260.66
2018-04-14T11:22:32.048Z,101260.66
2018-04-14T11:25:35.370Z,101262.06
2018-04-14T11:28:38.714Z,101270.30
2018-04-14T11:31:42.025Z,101277.00
2018-04-14T11:34:45.353Z,101280.23
2018-04-14T11:37:48.672Z,101286.52
2018-04-14T11:40:52.745Z,101287.75
2018-04-14T11:43:56.065Z,101299.25
2018-04-14T11:46:59.367Z,101306.67
2018-04-14T11:50:03.457Z,101306.46
2018-04-14T11:53:06.785Z,101313.89
2018-04-14T11:56:10.868Z,101309.18
2018-04-14T11:59:14.217Z,101317.45
2018-04-14T12:02:17.568Z,101327.98
2018-04-14T12:05:20.861Z,101331.03
2018-04-14T12:08:24.169Z,101335.41
2018-04-14T12:11:27.494Z,101341.56
2018-04-14T12:14:31.559Z,101349.08
2018-04-14T12:17:34.886Z,101353.05
2018-04-14T12:20:38.965Z,101357.34
2018-04-14T12:23:42.293Z,101361.58
2018-04-14T12:26:45.606Z,101354.75
2018-04-14T12:29:48.936Z,101358.69
2018-04-14T12:32:52.265Z,101360.14
2018-04-14T12:35:55.690Z,101371.43
2018-04-14T12:38:59.068Z,101373.28
2018-04-14T12:42:02.381Z,101374.20
2018-04-14T12:45:06.474Z,101375.66
2018-04-14T12:48:09.798Z,101372.17
2018-04-14T12:51:13.113Z,101377.67
2018-04-14T12:54:16.433Z,101381.32
2018-04-14T12:57:19.761Z,101374.91
2018-04-14T13:00:23.089Z,101380.80
2018-04-14T13:03:27.152Z,101386.40
2018-04-14T13:06:30.492Z,101390.04
2018-04-14T13:09:34.566Z,101390.38
2018-04-14T13:12:37.901Z,101395.00
2018-04-14T13:15:41.218Z,101402.00
2018-04-14T13:18:44.534Z,101399.34
2018-04-14T13:21:47.854Z,101407.10
2018-04-14T13:24:51.182Z,101402.59
2018-04-14T13:27:54.507Z,101401.55
2018-04-14T13:30:57.800Z,101406.97
2018-04-14T13:34:01.121Z,101414.81
2018-04-14T13:37:04.437Z,101418.81
2018-04-14T13:40:07.763Z,101423.41
2018-04-14T13:43:11.102Z,101428.47
2018-04-14T13:46:15.182Z,101433.69
2018-04-14T13:49:19.265Z,101432.98
2018-04-14T13:52:22.571Z,101435.86
2018-04-14T13:55:25.892Z,101441.77
2018-04-14T13:58:29.969Z,101435.39
2018-04-14T14:01:33.301Z,101441.46
2018-04-14T14:04:37.403Z,101439.81
2018-04-14T14:07:40.701Z,101443.81
2018-04-14T14:10:44.031Z,101450.36
2018-04-14T14:13:47.387Z,101455.89
2018-04-14T14:16:50.704Z,101448.24
2018-04-14T14:19:54.776Z,101454.81
2018-04-14T14:22:58.098Z,101457.19
2018-04-14T14:26:01.404Z,101455.30
2018-04-14T14:29:04.729Z,101454.22
2018-04-14T14:32:08.049Z,101455.23
2018-04-14T14:35:12.137Z,101453.49
2018-04-14T14:38:15.461Z,101457.72
2018-04-14T14:41:18.765Z,101457.23
2018-04-14T14:44:22.084Z,101453.59
2018-04-14T14:47:25.380Z,101461.46
2018-04-14T14:50:28.704Z,101461.02
2018-04-14T14:53:32.777Z,101462.57
2018-04-14T14:56:36.094Z,101467.45
2018-04-14T14:59:39.397Z,101466.21
2018-04-14T15:02:42.757Z,101461.31
2018-04-14T15:05:46.109Z,101466.20
2018-04-14T15:08:50.189Z,101469.57
2018-04-14T15:11:53.497Z,101465.20
2018-04-14T15:14:56.845Z,101467.68
2018-04-14T15:18:00.157Z,101474.56
2018-04-14T15:21:03.487Z,101469.84
2018-04-14T15:24:06.792Z,101468.42
2018-04-14T15:27:10.116Z,101471.98
2018-04-14T15:30:13.424Z,101477.16
2018-04-14T15:33:16.745Z,101480.95
2018-04-14T15:36:20.057Z,101478.36
2018-04-14T15:39:23.393Z,101479.48
2018-04-14T15:42:26.717Z,101483.50
2018-04-14T15:45:30.045Z,101483.34
2018-04-14T15:48:33.348Z,101486.29
2018-04-14T15:51:36.668Z,101484.62
2018-04-14T15:54:40.757Z,101490.34
2018-04-14T15:57:44.087Z,101489.58
2018-04-14T16:00:48.157Z,101497.23
2018-04-14T16:03:51.533Z,101495.61
2018-04-14T16:06:55.580Z,101514.03
2018-04-14T16:09:58.912Z,101495.98
2018-04-14T16:13:02.985Z,101490.92
2018-04-14T16:16:06.313Z,101500.89
2018-04-14T16:19:10.387Z,101504.07
2018-04-14T16:22:13.713Z,101506.31
2018-04-14T16:25:17.037Z,101502.87
2018-04-14T16:28:21.121Z,101509.84
2018-04-14T16:31:24.488Z,101511.19
2018-04-14T16:34:27.769Z,101514.67
2018-04-14T16:37:31.117Z,101521.75
2018-04-14T16:40:34.421Z,101526.70
2018-04-14T16:43:38.509Z,101525.41
2018-04-14T16:46:41.827Z,101519.45
2018-04-14T16:49:45.153Z,101526.61
2018-04-14T16:52:48.449Z,101525.79
2018-04-14T16:55:51.778Z,101533.53
2018-04-14T16:58:55.093Z,101534.53
2018-04-14T17:01:58.439Z,101528.73
2018-04-14T17:05:01.778Z,101530.16
2018-04-14T17:08:05.091Z,101529.23
2018-04-14T17:11:08.409Z,101527.19
2018-04-14T17:14:12.505Z,101523.55
2018-04-14T17:17:15.832Z,101538.58
2018-04-14T17:20:19.917Z,101529.57
2018-04-14T17:23:23.262Z,101540.75
2018-04-14T17:26:26.576Z,101532.40
2018-04-14T17:29:29.900Z,101531.80
2018-04-14T17:32:33.261Z,101529.80
2018-04-14T17:35:37.309Z,101538.86
2018-04-14T17:38:40.614Z,101538.96
2018-04-14T17:41:43.945Z,101541.25
2018-04-14T17:44:47.244Z,101554.59
2018-04-14T17:47:50.569Z,101548.25
2018-04-14T17:50:53.864Z,101557.75
2018-04-14T17:53:57.183Z,101550.10
2018-04-14T17:57:00.481Z,101551.01
2018-04-14T18:00:03.817Z,101558.77
2018-04-14T18:03:08.624Z,101546.02
2018-04-14T18:06:11.948Z,101545.59
2018-04-14T18:09:16.049Z,101548.31
2018-04-14T18:12:20.116Z,101557.25
2018-04-14T18:15:23.433Z,101552.64
2018-04-14T18:18:26.742Z,101557.51
2018-04-14T18:21:30.076Z,101559.56
2018-04-14T18:24:33.393Z,101566.41
2018-04-14T18:27:36.714Z,101579.48
2018-04-14T18:30:40.045Z,101583.25
2018-04-14T18:33:44.125Z,101576.98
2018-04-14T18:36:47.472Z,101576.48
2018-04-14T18:39:50.828Z,101586.55
2018-04-14T18:42:54.133Z,101579.24
2018-04-14T18:45:57.454Z,101583.41
2018-04-14T18:49:01.553Z,101589.76
2018-04-14T18:52:04.901Z,101587.45
2018-04-14T18:55:08.217Z,101593.56
2018-04-14T18:58:11.544Z,101591.81
2018-04-14T19:01:15.645Z,101584.85
2018-04-14T19:04:18.944Z,101596.50
2018-04-14T19:07:22.275Z,101596.13
2018-04-14T19:10:25.584Z,101594.58
2018-04-14T19:13:28.904Z,101601.00
2018-04-14T19:16:32.212Z,101597.91
2018-04-14T19:19:35.533Z,101598.95
2018-04-14T19:22:38.855Z,101607.20
2018-04-14T19:25:42.944Z,101596.29
2018-04-14T19:28:46.265Z,101599.47
2018-04-14T19:31:50.334Z,101599.23
2018-04-14T19:34:53.644Z,101603.80
2018-04-14T19:37:57.020Z,101595.67
2018-04-14T19:41:00.285Z,101606.00
2018-04-14T19:44:03.617Z,101608.14
2018-04-14T19:47:06.920Z,101610.15
2018-04-14T19:50:10.264Z,101613.63
2018-04-14T19:53:13.573Z,101614.87
2018-04-14T19:56:16.896Z,101609.37
2018-04-14T19:59:20.201Z,101613.70
2018-04-14T20:02:23.537Z,101622.95
2018-04-14T20:05:27.605Z,101616.18
2018-04-14T20:08:30.921Z,101625.62
2018-04-14T20:11:34.225Z,101615.02
2018-04-14T20:14:37.541Z,101617.84
2018-04-14T20:17:41.615Z,101611.57
2018-04-14T20:20:44.953Z,101622.95
2018-04-14T20:23:49.024Z,101635.99
2018-04-14T20:26:52.350Z,101625.05
2018-04-14T20:29:55.692Z,101631.13
2018-04-14T20:32:59.005Z,101631.70
2018-04-14T20:36:02.329Z,101635.48
2018-04-14T20:39:06.404Z,101633.83
2018-04-14T20:42:09.723Z,101641.98
2018-04-14T20:45:13.049Z,101639.08
2018-04-14T20:48:16.373Z,101648.09
2018-04-14T20:51:19.702Z,101639.35
2018-04-14T20:54:23.040Z,101645.31
2018-04-14T20:57:26.351Z,101645.89
2018-04-14T21:00:29.676Z,101649.45
2018-04-14T21:03:32.985Z,101647.56
2018-04-14T21:06:36.314Z,101651.16
2018-04-14T21:09:39.617Z,101649.38
2018-04-14T21:12:42.937Z,101651.63
2018-04-14T21:15:47.025Z,101652.94
2018-04-14T21:18:50.390Z,101651.72
2018-04-14T21:21:53.682Z,101646.24
2018-04-14T21:24:57.001Z,101649.45
2018-04-14T21:28:00.324Z,101645.95
2018-04-14T21:31:04.401Z,101644.15
2018-04-14T21:34:07.741Z,101640.40
2018-04-14T21:37:11.046Z,101643.11
2018-04-14T21:40:14.361Z,101645.95
2018-04-14T21:43:17.669Z,101642.47
2018-04-14T21:46:20.984Z,101640.55
2018-04-14T21:49:24.289Z,101636.17
2018-04-14T21:52:27.601Z,101636.91
2018-04-14T21:55:30.928Z,101636.91
2018-04-14T21:58:35.001Z,101640.04
2018-04-14T22:01:38.361Z,101638.38
2018-04-14T22:04:41.669Z,101642.67
2018-04-14T22:07:45.009Z,101640.61
2018-04-14T22:10:48.304Z,101643.11
2018-04-14T22:13:51.617Z,101639.63
2018-04-14T22:16:55.689Z,101642.13
2018-04-14T22:19:59.029Z,101631.51
2018-04-14T22:23:03.104Z,101629.64
2018-04-14T22:26:06.421Z,101636.58
2018-04-14T22:29:09.728Z,101641.23
2018-04-14T22:32:13.822Z,101644.60
2018-04-14T22:35:17.127Z,101642.65
2018-04-14T22:38:20.449Z,101635.03
2018-04-14T22:41:24.538Z,101650.43
2018-04-14T22:44:27.836Z,101655.69
2018-04-14T22:47:31.169Z,101652.88
2018-04-14T22:50:34.486Z,101658.02
2018-04-14T22:53:37.809Z,101650.18
2018-04-14T22:56:41.110Z,101653.63
2018-04-14T22:59:44.434Z,101655.22
2018-04-14T23:02:48.540Z,101655.77
2018-04-14T23:05:51.845Z,101653.50
2018-04-14T23:08:55.950Z,101657.89
2018-04-14T23:11:59.255Z,101663.61
2018-04-14T23:15:03.358Z,101665.08
2018-04-14T23:18:06.662Z,101660.73
2018-04-14T23:21:09.988Z,101660.99
2018-04-14T23:24:13.290Z,101661.34
2018-04-14T23:27:16.616Z,101668.97
2018-04-14T23:30:19.911Z,101668.19
2018-04-14T23:33:23.230Z,101678.62
2018-04-14T23:36:26.533Z,101681.01
2018-04-14T23:39:29.856Z,101681.17
2018-04-14T23:42:33.157Z,101689.03
2018-04-14T23:45:36.477Z,101688.79
2018-04-14T23:48:40.549Z,101686.02
2018-04-14T23:51:44.653Z,101690.03
2018-04-14T23:54:48.725Z,101691.55
2018-04-14T23:57:52.062Z,101689.81
